sensor_id;sensor_type;location;lat;lon;timestamp;pressure;altitude;pressure_sealevel;temperature;humidity
8569;BME280;4322;51.104;-4.162;2022-07-21T00:00:19;102673.78;;;16.46;100.00
8569;BME280;4322;51.104;-4.162;2022-07-21T00:02:47;102679.09;;;16.45;100.00
8569;BME280;4322;51.104;-4.162;2022-07-21T00:05:16;102679.19;;;16.43;100.00
8569;BME280;4322;51.104;-4.162;2022-07-21T00:07:44;102689.75;;;16.42;100.00
8569;BME280;4322;51.104;-4.162;2022-07-21T00:10:13;102683.72;;;16.40;100.00
8569;BME280;4322;51.104;-4.162;2022-07-21T00:12:42;102688.19;;;16.38;100.00
8569;BME280;4322;51.104;-4.162;2022-07-21T00:15:12;102700.50;;;16.37;100.00
8569;BME280;4322;51.104;-4.162;2022-07-21T00:17:40;102698.75;;;16.36;100.00
8569;BME280;4322;51.104;-4.162;2022-07-21T00:20:10;102695.34;;;16.34;100.00
8569;BME280;4322;51.104;-4.162;2022-07-21T00:22:39;102699.75;;;16.34;100.00
8569;BME280;4322;51.104;-4.162;2022-07-21T00:25:08;102697.19;;;16.32;100.00
8569;BME280;4322;51.104;-4.162;2022-07-21T00:27:38;102704.31;;;16.30;100.00
8569;BME280;4322;51.104;-4.162;2022-07-21T00:30:08;102703.44;;;16.30;100.00
8569;BME280;4322;51.104;-4.162;2022-07-21T00:32:38;102703.56;;;16.27;100.00
8569;BME280;4322;51.104;-4.162;2022-07-21T00:35:07;102708.84;;;16.27;100.00
8569;BME280;4322;51.104;-4.162;2022-07-21T00:37:36;102704.44;;;16.27;100.00
8569;BME280;4322;51.104;-4.162;2022-07-21T00:40:05;102706.25;;;16.25;100.00
8569;BME280;4322;51.104;-4.162;2022-07-21T00:42:34;102709.81;;;16.24;100.00
8569;BME280;4322;51.104;-4.162;2022-07-21T00:45:04;102708.09;;;16.23;100.00
8569;BME280;4322;51.104;-4.162;2022-07-21T00:47:33;102709.94;;;16.21;100.00
8569;BME280;4322;51.104;-4.162;2022-07-21T00:50:05;102719.59;;;16.21;100.00
8569;BME280;4322;51.104;-4.162;2022-07-21T00:52:34;102717.06;;;16.19;100.00
8569;BME280;4322;51.104;-4.162;2022-07-21T00:55:03;102717.06;;;16.19;100.00
8569;BME280;4322;51.104;-4.162;2022-07-21T00:57:32;102710.06;;;16.18;100.00
8569;BME280;4322;51.104;-4.162;2022-07-21T01:00:00;102710.06;;;16.18;100.00
8569;BME280;4322;51.104;-4.162;2022-07-21T01:02:28;102713.59;;;16.17;100.00
8569;BME280;4322;51.104;-4.162;2022-07-21T01:04:58;102714.53;;;16.16;100.00
8569;BME280;4322;51.104;-4.162;2022-07-21T01:07:28;102709.31;;;16.15;100.00
8569;BME280;4322;51.104;-4.162;2022-07-21T01:09:56;102708.50;;;16.14;100.00
8569;BME280;4322;51.104;-4.162;2022-07-21T01:12:25;102712.91;;;16.14;100.00
8569;BME280;4322;51.104;-4.162;2022-07-21T01:14:53;102719.06;;;16.13;100.00
8569;BME280;4322;51.104;-4.162;2022-07-21T01:17:21;102714.72;;;16.12;100.00
8569;BME280;4322;51.104;-4.162;2022-07-21T01:19:49;102719.19;;;16.09;100.00
8569;BME280;4322;51.104;-4.162;2022-07-21T01:22:20;102720.13;;;16.08;100.00
8569;BME280;4322;51.104;-4.162;2022-07-21T01:24:48;102728.94;;;16.07;100.00
8569;BME280;4322;51.104;-4.162;2022-07-21T01:27:16;102731.63;;;16.06;100.00
8569;BME280;4322;51.104;-4.162;2022-07-21T01:29:44;102733.44;;;16.04;100.00
8569;BME280;4322;51.104;-4.162;2022-07-21T01:32:12;102732.59;;;16.03;100.00
8569;BME280;4322;51.104;-4.162;2022-07-21T01:34:41;102728.25;;;16.02;100.00
8569;BME280;4322;51.104;-4.162;2022-07-21T01:37:09;102728.31;;;16.01;100.00
8569;BME280;4322;51.104;-4.162;2022-07-21T01:39:38;102735.41;;;15.99;100.00
8569;BME280;4322;51.104;-4.162;2022-07-21T01:42:24;102731.09;;;15.98;100.00
8569;BME280;4322;51.104;-4.162;2022-07-21T01:44:53;102738.13;;;15.97;100.00
8569;BME280;4322;51.104;-4.162;2022-07-21T01:47:23;102734.66;;;15.95;100.00
8569;BME280;4322;51.104;-4.162;2022-07-21T01:49:55;102732.91;;;15.96;100.00
8569;BME280;4322;51.104;-4.162;2022-07-21T01:52:23;102736.47;;;15.95;100.00
8569;BME280;4322;51.104;-4.162;2022-07-21T01:54:53;102734.75;;;15.94;100.00
8569;BME280;4322;51.104;-4.162;2022-07-21T01:57:21;102737.38;;;15.94;100.00
8569;BME280;4322;51.104;-4.162;2022-07-21T01:59:49;102739.13;;;15.93;100.00
8569;BME280;4322;51.104;-4.162;2022-07-21T02:02:17;102742.75;;;15.91;100.00
8569;BME280;4322;51.104;-4.162;2022-07-21T02:04:47;102734.84;;;15.91;100.00
8569;BME280;4322;51.104;-4.162;2022-07-21T02:07:16;102741.88;;;15.90;100.00
8569;BME280;4322;51.104;-4.162;2022-07-21T02:09:44;102740.13;;;15.91;100.00
8569;BME280;4322;51.104;-4.162;2022-07-21T02:12:14;102736.63;;;15.90;100.00
8569;BME280;4322;51.104;-4.162;2022-07-21T02:14:42;102738.47;;;15.88;100.00
8569;BME280;4322;51.104;-4.162;2022-07-21T02:17:10;102735.75;;;15.90;100.00
8569;BME280;4322;51.104;-4.162;2022-07-21T02:19:38;102740.19;;;15.89;100.00
8569;BME280;4322;51.104;-4.162;2022-07-21T02:22:06;102745.47;;;15.89;100.00
8569;BME280;4322;51.104;-4.162;2022-07-21T02:24:34;102745.50;;;15.88;100.00
8569;BME280;4322;51.104;-4.162;2022-07-21T02:27:03;102742.88;;;15.88;100.00
8569;BME280;4322;51.104;-4.162;2022-07-21T02:29:32;102754.25;;;15.88;100.00
8569;BME280;4322;51.104;-4.162;2022-07-21T02:32:02;102749.84;;;15.89;100.00
8569;BME280;4322;51.104;-4.162;2022-07-21T02:34:31;102753.38;;;15.88;100.00
8569;BME280;4322;51.104;-4.162;2022-07-21T02:36:59;102752.53;;;15.87;100.00
8569;BME280;4322;51.104;-4.162;2022-07-21T02:39:27;102751.75;;;15.85;100.00
8569;BME280;4322;51.104;-4.162;2022-07-21T02:41:55;102748.19;;;15.86;100.00
8569;BME280;4322;51.104;-4.162;2022-07-21T02:44:23;102745.63;;;15.85;100.00
8569;BME280;4322;51.104;-4.162;2022-07-21T02:46:52;102747.47;;;15.83;100.00
8569;BME280;4322;51.104;-4.162;2022-07-21T02:49:20;102750.16;;;15.81;100.00
8569;BME280;4322;51.104;-4.162;2022-07-21T02:51:48;102738.81;;;15.79;100.00
8569;BME280;4322;51.104;-4.162;2022-07-21T02:54:16;102744.94;;;15.80;100.00
8569;BME280;4322;51.104;-4.162;2022-07-21T02:56:48;102742.50;;;15.75;100.00
8569;BME280;4322;51.104;-4.162;2022-07-21T02:59:16;102746.97;;;15.73;100.00
8569;BME280;4322;51.104;-4.162;2022-07-21T03:01:44;102747.88;;;15.72;100.00
8569;BME280;4322;51.104;-4.162;2022-07-21T03:04:14;102745.31;;;15.71;100.00
8569;BME280;4322;51.104;-4.162;2022-07-21T03:06:42;102737.47;;;15.69;100.00
8569;BME280;4322;51.104;-4.162;2022-07-21T03:09:10;102738.38;;;15.68;100.00
8569;BME280;4322;51.104;-4.162;2022-07-21T03:11:39;102746.28;;;15.68;100.00
8569;BME280;4322;51.104;-4.162;2022-07-21T03:14:07;102741.94;;;15.67;100.00
8569;BME280;4322;51.104;-4.162;2022-07-21T03:16:35;102743.78;;;15.65;100.00
8569;BME280;4322;51.104;-4.162;2022-07-21T03:19:03;102735.94;;;15.64;100.00
8569;BME280;4322;51.104;-4.162;2022-07-21T03:21:40;102740.34;;;15.63;100.00
8569;BME280;4322;51.104;-4.162;2022-07-21T03:24:08;102745.66;;;15.62;100.00
8569;BME280;4322;51.104;-4.162;2022-07-21T03:26:36;102746.56;;;15.61;100.00
8569;BME280;4322;51.104;-4.162;2022-07-21T03:29:05;102744.06;;;15.58;100.00
8569;BME280;4322;51.104;-4.162;2022-07-21T03:31:33;102741.50;;;15.56;100.00
8569;BME280;4322;51.104;-4.162;2022-07-21T03:34:02;102737.09;;;15.57;100.00
8569;BME280;4322;51.104;-4.162;2022-07-21T03:36:30;102742.47;;;15.54;100.00
8569;BME280;4322;51.104;-4.162;2022-07-21T03:38:59;102740.75;;;15.53;100.00
8569;BME280;4322;51.104;-4.162;2022-07-21T03:41:27;102723.34;;;15.50;100.00
8569;BME280;4322;51.104;-4.162;2022-07-21T03:43:56;102730.34;;;15.49;100.00
8569;BME280;4322;51.104;-4.162;2022-07-21T03:46:24;102733.06;;;15.48;100.00
8569;BME280;4322;51.104;-4.162;2022-07-21T03:48:52;102734.00;;;15.45;100.00
8569;BME280;4322;51.104;-4.162;2022-07-21T03:51:21;102727.00;;;15.44;100.00
8569;BME280;4322;51.104;-4.162;2022-07-21T03:53:49;102730.56;;;15.43;100.00
8569;BME280;4322;51.104;-4.162;2022-07-21T03:56:18;102725.44;;;15.40;100.00
8569;BME280;4322;51.104;-4.162;2022-07-21T03:58:47;102726.25;;;15.41;100.00
8569;BME280;4322;51.104;-4.162;2022-07-21T04:01:15;102728.97;;;15.39;100.00
8569;BME280;4322;51.104;-4.162;2022-07-21T04:03:44;102733.34;;;15.39;100.00
8569;BME280;4322;51.104;-4.162;2022-07-21T04:06:12;102725.47;;;15.39;100.00
8569;BME280;4322;51.104;-4.162;2022-07-21T04:08:40;102730.81;;;15.37;100.00
8569;BME280;4322;51.104;-4.162;2022-07-21T04:11:08;102730.81;;;15.37;100.00
8569;BME280;4322;51.104;-4.162;2022-07-21T04:13:38;102726.44;;;15.36;100.00
8569;BME280;4322;51.104;-4.162;2022-07-21T04:16:07;102732.63;;;15.35;100.00
8569;BME280;4322;51.104;-4.162;2022-07-21T04:18:35;102730.06;;;15.34;100.00
8569;BME280;4322;51.104;-4.162;2022-07-21T04:21:03;102734.44;;;15.33;100.00
8569;BME280;4322;51.104;-4.162;2022-07-21T04:23:31;102725.78;;;15.31;100.00
8569;BME280;4322;51.104;-4.162;2022-07-21T04:26:00;102720.63;;;15.28;100.00
8569;BME280;4322;51.104;-4.162;2022-07-21T04:28:28;102721.53;;;15.27;100.00
8569;BME280;4322;51.104;-4.162;2022-07-21T04:30:58;102725.09;;;15.26;100.00
8569;BME280;4322;51.104;-4.162;2022-07-21T04:33:26;102721.59;;;15.26;100.00
8569;BME280;4322;51.104;-4.162;2022-07-21T04:36:03;102736.50;;;15.25;100.00
8569;BME280;4322;51.104;-4.162;2022-07-21T04:38:31;102733.94;;;15.24;100.00
8569;BME280;4322;51.104;-4.162;2022-07-21T04:40:59;102729.59;;;15.23;100.00
8569;BME280;4322;51.104;-4.162;2022-07-21T04:43:27;102727.91;;;15.22;100.00
8569;BME280;4322;51.104;-4.162;2022-07-21T04:45:58;102732.28;;;15.21;100.00
8569;BME280;4322;51.104;-4.162;2022-07-21T04:48:26;102730.56;;;15.20;100.00
8569;BME280;4322;51.104;-4.162;2022-07-21T04:50:54;102729.78;;;15.18;100.00
8569;BME280;4322;51.104;-4.162;2022-07-21T04:53:22;102724.53;;;15.18;100.00
8569;BME280;4322;51.104;-4.162;2022-07-21T04:55:50;102726.22;;;15.19;100.00
8569;BME280;4322;51.104;-4.162;2022-07-21T04:58:18;102730.63;;;15.19;100.00
8569;BME280;4322;51.104;-4.162;2022-07-21T05:00:46;102726.22;;;15.19;100.00
8569;BME280;4322;51.104;-4.162;2022-07-21T05:03:16;102733.25;;;15.19;100.00
8569;BME280;4322;51.104;-4.162;2022-07-21T05:05:44;102730.56;;;15.20;100.00
8569;BME280;4322;51.104;-4.162;2022-07-21T05:08:12;102731.47;;;15.19;100.00
8569;BME280;4322;51.104;-4.162;2022-07-21T05:10:43;102728.81;;;15.21;100.00
8569;BME280;4322;51.104;-4.162;2022-07-21T05:13:11;102739.22;;;15.22;100.00
8569;BME280;4322;51.104;-4.162;2022-07-21T05:15:39;102735.63;;;15.25;100.00
8569;BME280;4322;51.104;-4.162;2022-07-21T05:18:07;102737.38;;;15.26;100.00
8569;BME280;4322;51.104;-4.162;2022-07-21T05:20:37;102729.41;;;15.27;100.00
8569;BME280;4322;51.104;-4.162;2022-07-21T05:23:05;102739.00;;;15.28;100.00
8569;BME280;4322;51.104;-4.162;2022-07-21T05:25:35;102734.56;;;15.30;100.00
8569;BME280;4322;51.104;-4.162;2022-07-21T05:28:05;102743.25;;;15.32;100.00
8569;BME280;4322;51.104;-4.162;2022-07-21T05:30:33;102748.41;;;15.35;100.00
8569;BME280;4322;51.104;-4.162;2022-07-21T05:33:02;102743.00;;;15.38;100.00
8569;BME280;4322;51.104;-4.162;2022-07-21T05:35:30;102746.47;;;15.40;100.00
8569;BME280;4322;51.104;-4.162;2022-07-21T05:37:59;102743.75;;;15.42;100.00
8569;BME280;4322;51.104;-4.162;2022-07-21T05:40:28;102743.66;;;15.45;100.00
8569;BME280;4322;51.104;-4.162;2022-07-21T05:42:56;102754.94;;;15.48;100.00
8569;BME280;4322;51.104;-4.162;2022-07-21T05:45:24;102746.09;;;15.51;100.00
8569;BME280;4322;51.104;-4.162;2022-07-21T05:47:52;102739.84;;;15.54;100.00
8569;BME280;4322;51.104;-4.162;2022-07-21T05:50:20;102746.75;;;15.56;100.00
8569;BME280;4322;51.104;-4.162;2022-07-21T05:52:48;102744.00;;;15.59;100.00
8569;BME280;4322;51.104;-4.162;2022-07-21T05:55:18;102737.78;;;15.62;100.00
8569;BME280;4322;51.104;-4.162;2022-07-21T05:57:46;102744.69;;;15.64;100.00
8569;BME280;4322;51.104;-4.162;2022-07-21T06:00:16;102747.25;;;15.66;100.00
8569;BME280;4322;51.104;-4.162;2022-07-21T06:02:45;102741.88;;;15.69;100.00
8569;BME280;4322;51.104;-4.162;2022-07-21T06:05:16;102741.84;;;15.70;100.00
8569;BME280;4322;51.104;-4.162;2022-07-21T06:07:44;102744.34;;;15.73;100.00
8569;BME280;4322;51.104;-4.162;2022-07-21T06:10:12;102739.88;;;15.75;100.00
8569;BME280;4322;51.104;-4.162;2022-07-21T06:12:45;102746.78;;;15.78;100.00
8569;BME280;4322;51.104;-4.162;2022-07-21T06:15:13;102741.41;;;15.81;100.00
8569;BME280;4322;51.104;-4.162;2022-07-21T06:17:43;102743.06;;;15.83;100.00
8569;BME280;4322;51.104;-4.162;2022-07-21T06:20:12;102750.88;;;15.85;100.00
8569;BME280;4322;51.104;-4.162;2022-07-21T06:22:41;102751.69;;;15.87;100.00
8569;BME280;4322;51.104;-4.162;2022-07-21T06:25:09;102738.47;;;15.88;100.00
8569;BME280;4322;51.104;-4.162;2022-07-21T06:27:37;102747.09;;;15.92;100.00
8569;BME280;4322;51.104;-4.162;2022-07-21T06:30:08;102748.75;;;15.94;100.00
8569;BME280;4322;51.104;-4.162;2022-07-21T06:32:36;102755.66;;;15.97;100.00
8569;BME280;4322;51.104;-4.162;2022-07-21T06:35:05;102750.31;;;15.98;100.00
8569;BME280;4322;51.104;-4.162;2022-07-21T06:37:33;102751.16;;;16.00;100.00
8569;BME280;4322;51.104;-4.162;2022-07-21T06:40:04;102751.94;;;16.02;100.00
8569;BME280;4322;51.104;-4.162;2022-07-21T06:42:32;102747.47;;;16.04;100.00
8569;BME280;4322;51.104;-4.162;2022-07-21T06:45:00;102748.25;;;16.06;100.00
8569;BME280;4322;51.104;-4.162;2022-07-21T06:47:30;102752.53;;;16.09;100.00
8569;BME280;4322;51.104;-4.162;2022-07-21T06:49:58;102758.59;;;16.11;100.00
8569;BME280;4322;51.104;-4.162;2022-07-21T06:52:32;102763.78;;;16.13;100.00
8569;BME280;4322;51.104;-4.162;2022-07-21T06:55:01;102775.06;;;16.16;100.00
8569;BME280;4322;51.104;-4.162;2022-07-21T06:57:29;102772.31;;;16.19;100.00
8569;BME280;4322;51.104;-4.162;2022-07-21T06:59:58;102768.69;;;16.22;100.00
8569;BME280;4322;51.104;-4.162;2022-07-21T07:02:26;102769.41;;;16.25;100.00
8569;BME280;4322;51.104;-4.162;2022-07-21T07:04:56;102771.13;;;16.26;100.00
8569;BME280;4322;51.104;-4.162;2022-07-21T07:07:33;102756.94;;;16.30;100.00
8569;BME280;4322;51.104;-4.162;2022-07-21T07:10:01;102751.59;;;16.32;100.00
8569;BME280;4322;51.104;-4.162;2022-07-21T07:12:30;102764.56;;;16.36;100.00
8569;BME280;4322;51.104;-4.162;2022-07-21T07:15:18;102758.31;;;16.39;100.00
8569;BME280;4322;51.104;-4.162;2022-07-21T07:17:46;102761.69;;;16.42;100.00
8569;BME280;4322;51.104;-4.162;2022-07-21T07:20:16;102765.97;;;16.45;100.00
8569;BME280;4322;51.104;-4.162;2022-07-21T07:22:44;102774.50;;;16.50;100.00
8569;BME280;4322;51.104;-4.162;2022-07-21T07:25:12;102772.69;;;16.52;100.00
8569;BME280;4322;51.104;-4.162;2022-07-21T07:27:43;102772.53;;;16.56;100.00
8569;BME280;4322;51.104;-4.162;2022-07-21T07:30:13;102766.19;;;16.60;100.00
8569;BME280;4322;51.104;-4.162;2022-07-21T07:32:41;102762.44;;;16.66;100.00
8569;BME280;4322;51.104;-4.162;2022-07-21T07:35:11;102752.66;;;16.70;100.00
8569;BME280;4322;51.104;-4.162;2022-07-21T07:37:42;102754.16;;;16.75;100.00
8569;BME280;4322;51.104;-4.162;2022-07-21T07:40:14;102760.16;;;16.79;100.00
8569;BME280;4322;51.104;-4.162;2022-07-21T07:42:42;102760.03;;;16.82;100.00
8569;BME280;4322;51.104;-4.162;2022-07-21T07:45:12;102771.34;;;16.84;100.00
8569;BME280;4322;51.104;-4.162;2022-07-21T07:47:40;102767.81;;;16.85;100.00
8569;BME280;4322;51.104;-4.162;2022-07-21T07:50:11;102765.03;;;16.88;100.00
8569;BME280;4322;51.104;-4.162;2022-07-21T07:52:42;102778.06;;;16.91;100.00
8569;BME280;4322;51.104;-4.162;2022-07-21T07:55:11;102773.59;;;16.93;100.00
8569;BME280;4322;51.104;-4.162;2022-07-21T07:57:41;102762.94;;;16.96;100.00
8569;BME280;4322;51.104;-4.162;2022-07-21T08:00:13;102768.78;;;17.02;100.00
8569;BME280;4322;51.104;-4.162;2022-07-21T08:03:01;102768.56;;;17.07;100.00
8569;BME280;4322;51.104;-4.162;2022-07-21T08:05:30;102771.06;;;17.10;100.00
8569;BME280;4322;51.104;-4.162;2022-07-21T08:07:59;102773.50;;;17.14;100.00
8569;BME280;4322;51.104;-4.162;2022-07-21T08:10:27;102777.66;;;17.20;100.00
8569;BME280;4322;51.104;-4.162;2022-07-21T08:13:12;102775.66;;;17.25;100.00
8569;BME280;4322;51.104;-4.162;2022-07-21T08:15:40;102772.94;;;17.26;100.00
8569;BME280;4322;51.104;-4.162;2022-07-21T08:18:09;102768.53;;;17.27;100.00
8569;BME280;4322;51.104;-4.162;2022-07-21T08:20:38;102765.81;;;17.28;100.00
8569;BME280;4322;51.104;-4.162;2022-07-21T08:23:08;102761.53;;;17.26;100.00
8569;BME280;4322;51.104;-4.162;2022-07-21T08:25:38;102749.31;;;17.25;100.00
8569;BME280;4322;51.104;-4.162;2022-07-21T08:28:06;102747.44;;;17.27;100.00
8569;BME280;4322;51.104;-4.162;2022-07-21T08:30:35;102743.59;;;17.34;100.00
8569;BME280;4322;51.104;-4.162;2022-07-21T08:33:03;102750.31;;;17.41;100.00
8569;BME280;4322;51.104;-4.162;2022-07-21T08:35:32;102760.59;;;17.47;100.00
8569;BME280;4322;51.104;-4.162;2022-07-21T08:38:03;102754.22;;;17.51;100.00
8569;BME280;4322;51.104;-4.162;2022-07-21T08:40:36;102746.28;;;17.53;100.00
8569;BME280;4322;51.104;-4.162;2022-07-21T08:43:05;102757.41;;;17.59;100.00
8569;BME280;4322;51.104;-4.162;2022-07-21T08:45:36;102751.06;;;17.63;100.00
8569;BME280;4322;51.104;-4.162;2022-07-21T08:48:06;102751.72;;;17.68;100.00
8569;BME280;4322;51.104;-4.162;2022-07-21T08:50:35;102747.22;;;17.70;100.00
8569;BME280;4322;51.104;-4.162;2022-07-21T08:53:05;102749.56;;;17.76;100.00
8569;BME280;4322;51.104;-4.162;2022-07-21T08:55:36;102755.47;;;17.81;100.00
8569;BME280;4322;51.104;-4.162;2022-07-21T08:58:07;102755.25;;;17.86;100.00
8569;BME280;4322;51.104;-4.162;2022-07-21T09:00:37;102749.91;;;17.88;100.00
8569;BME280;4322;51.104;-4.162;2022-07-21T09:03:12;102753.31;;;17.90;100.00
8569;BME280;4322;51.104;-4.162;2022-07-21T09:05:40;102753.94;;;17.95;100.00
8569;BME280;4322;51.104;-4.162;2022-07-21T09:08:09;102755.72;;;17.94;100.00
8569;BME280;4322;51.104;-4.162;2022-07-21T09:10:38;102747.19;;;17.89;100.00
8569;BME280;4322;51.104;-4.162;2022-07-21T09:13:06;102736.78;;;17.86;100.00
8569;BME280;4322;51.104;-4.162;2022-07-21T09:15:35;102734.13;;;17.86;100.00
8569;BME280;4322;51.104;-4.162;2022-07-21T09:18:10;102745.25;;;17.93;100.00
8569;BME280;4322;51.104;-4.162;2022-07-21T09:20:47;102743.25;;;17.98;100.00
8569;BME280;4322;51.104;-4.162;2022-07-21T09:23:17;102746.53;;;18.03;100.00
8569;BME280;4322;51.104;-4.162;2022-07-21T09:25:49;102756.56;;;18.13;100.00
8569;BME280;4322;51.104;-4.162;2022-07-21T09:28:18;102750.22;;;18.17;100.00
8569;BME280;4322;51.104;-4.162;2022-07-21T09:30:56;102747.31;;;18.22;100.00
8569;BME280;4322;51.104;-4.162;2022-07-21T09:33:28;102755.88;;;18.27;100.00
8569;BME280;4322;51.104;-4.162;2022-07-21T09:36:02;102749.53;;;18.31;100.00
8569;BME280;4322;51.104;-4.162;2022-07-21T09:38:33;102763.19;;;18.39;100.00
8569;BME280;4322;51.104;-4.162;2022-07-21T09:41:11;102748.97;;;18.41;100.00
8569;BME280;4322;51.104;-4.162;2022-07-21T09:43:43;102759.97;;;18.51;100.00
8569;BME280;4322;51.104;-4.162;2022-07-21T09:46:15;102757.00;;;18.57;100.00
8569;BME280;4322;51.104;-4.162;2022-07-21T09:48:46;102765.56;;;18.62;100.00
8569;BME280;4322;51.104;-4.162;2022-07-21T09:51:36;102764.84;;;18.76;100.00
8569;BME280;4322;51.104;-4.162;2022-07-21T09:54:08;102768.19;;;18.79;100.00
8569;BME280;4322;51.104;-4.162;2022-07-21T09:56:41;102765.41;;;18.82;100.00
8569;BME280;4322;51.104;-4.162;2022-07-21T09:59:12;102773.78;;;18.90;100.00
8569;BME280;4322;51.104;-4.162;2022-07-21T10:01:41;102778.59;;;18.99;100.00
8569;BME280;4322;51.104;-4.162;2022-07-21T10:04:09;102785.88;;;19.12;100.00
8569;BME280;4322;51.104;-4.162;2022-07-21T10:06:39;102791.75;;;19.34;100.00
8569;BME280;4322;51.104;-4.162;2022-07-21T10:09:08;102812.16;;;19.65;100.00
8569;BME280;4322;51.104;-4.162;2022-07-21T10:11:40;102796.19;;;19.82;100.00
8569;BME280;4322;51.104;-4.162;2022-07-21T10:14:10;102807.03;;;19.93;100.00
8569;BME280;4322;51.104;-4.162;2022-07-21T10:16:41;102802.75;;;19.90;100.00
8569;BME280;4322;51.104;-4.162;2022-07-21T10:19:21;102797.63;;;19.87;100.00
8569;BME280;4322;51.104;-4.162;2022-07-21T10:21:57;102795.94;;;19.86;100.00
8569;BME280;4322;51.104;-4.162;2022-07-21T10:24:28;102794.28;;;19.68;100.00
8569;BME280;4322;51.104;-4.162;2022-07-21T10:27:03;102775.06;;;19.49;100.00
8569;BME280;4322;51.104;-4.162;2022-07-21T10:29:51;102772.22;;;19.36;100.00
8569;BME280;4322;51.104;-4.162;2022-07-21T10:32:30;102759.03;;;19.19;100.00
8569;BME280;4322;51.104;-4.162;2022-07-21T10:35:01;102767.47;;;19.10;100.00
8569;BME280;4322;51.104;-4.162;2022-07-21T10:37:45;102757.22;;;19.04;100.00
8569;BME280;4322;51.104;-4.162;2022-07-21T10:40:34;102746.22;;;19.12;100.00
8569;BME280;4322;51.104;-4.162;2022-07-21T10:43:38;102751.19;;;19.18;100.00
8569;BME280;4322;51.104;-4.162;2022-07-21T10:46:34;102750.94;;;19.22;100.00
8569;BME280;4322;51.104;-4.162;2022-07-21T10:49:05;102757.19;;;19.37;100.00
8569;BME280;4322;51.104;-4.162;2022-07-21T10:51:34;102760.56;;;19.40;100.00
8569;BME280;4322;51.104;-4.162;2022-07-21T10:54:25;102747.88;;;19.30;100.00
8569;BME280;4322;51.104;-4.162;2022-07-21T10:57:25;102740.78;;;19.30;100.00
8569;BME280;4322;51.104;-4.162;2022-07-21T11:00:21;102744.47;;;19.28;100.00
8569;BME280;4322;51.104;-4.162;2022-07-21T11:02:52;102746.94;;;19.31;100.00
8569;BME280;4322;51.104;-4.162;2022-07-21T11:05:21;102753.00;;;19.33;100.00
8569;BME280;4322;51.104;-4.162;2022-07-21T11:08:13;102759.03;;;19.52;100.00
8569;BME280;4322;51.104;-4.162;2022-07-21T11:10:44;102752.47;;;19.59;100.00
8569;BME280;4322;51.104;-4.162;2022-07-21T11:13:13;102756.59;;;19.65;100.00
8569;BME280;4322;51.104;-4.162;2022-07-21T11:15:58;102755.78;;;19.63;100.00
8569;BME280;4322;51.104;-4.162;2022-07-21T11:18:27;102755.72;;;19.64;100.00
8569;BME280;4322;51.104;-4.162;2022-07-21T11:21:17;102760.75;;;19.69;100.00
8569;BME280;4322;51.104;-4.162;2022-07-21T11:23:47;102747.94;;;19.61;100.00
8569;BME280;4322;51.104;-4.162;2022-07-21T11:26:17;102748.03;;;19.59;100.00
8569;BME280;4322;51.104;-4.162;2022-07-21T11:28:46;102745.03;;;19.66;100.00
8569;BME280;4322;51.104;-4.162;2022-07-21T11:31:21;102752.53;;;19.73;100.00
8569;BME280;4322;51.104;-4.162;2022-07-21T11:33:50;102737.94;;;19.82;100.00
8569;BME280;4322;51.104;-4.162;2022-07-21T11:36:24;102747.09;;;19.92;100.00
8569;BME280;4322;51.104;-4.162;2022-07-21T11:39:04;102757.72;;;20.06;100.00
8569;BME280;4322;51.104;-4.162;2022-07-21T11:41:34;102762.50;;;20.15;100.00
8569;BME280;4322;51.104;-4.162;2022-07-21T11:44:03;102753.38;;;20.20;100.00
8569;BME280;4322;51.104;-4.162;2022-07-21T11:46:48;102757.81;;;20.20;100.00
8569;BME280;4322;51.104;-4.162;2022-07-21T11:49:16;102753.63;;;20.16;100.00
8569;BME280;4322;51.104;-4.162;2022-07-21T11:51:52;102752.03;;;20.13;100.00
8569;BME280;4322;51.104;-4.162;2022-07-21T11:54:24;102751.00;;;20.00;100.00
8569;BME280;4322;51.104;-4.162;2022-07-21T11:56:53;102746.25;;;19.91;100.00
8569;BME280;4322;51.104;-4.162;2022-07-21T11:59:22;102741.81;;;19.92;100.00
8569;BME280;4322;51.104;-4.162;2022-07-21T12:01:55;102753.41;;;20.05;100.00
8569;BME280;4322;51.104;-4.162;2022-07-21T12:04:40;102759.00;;;20.30;100.00
8569;BME280;4322;51.104;-4.162;2022-07-21T12:07:21;102758.81;;;20.49;100.00
8569;BME280;4322;51.104;-4.162;2022-07-21T12:09:51;102760.63;;;20.62;100.00
8569;BME280;4322;51.104;-4.162;2022-07-21T12:12:34;102763.00;;;20.67;100.00
8569;BME280;4322;51.104;-4.162;2022-07-21T12:15:14;102758.09;;;20.75;100.00
8569;BME280;4322;51.104;-4.162;2022-07-21T12:18:03;102756.88;;;20.81;100.00
8569;BME280;4322;51.104;-4.162;2022-07-21T12:20:33;102758.97;;;21.04;100.00
8569;BME280;4322;51.104;-4.162;2022-07-21T12:23:18;102761.66;;;21.18;100.00
8569;BME280;4322;51.104;-4.162;2022-07-21T12:25:47;102746.41;;;21.07;100.00
8569;BME280;4322;51.104;-4.162;2022-07-21T12:28:41;102742.88;;;20.93;100.00
8569;BME280;4322;51.104;-4.162;2022-07-21T12:31:10;102742.47;;;20.70;100.00
8569;BME280;4322;51.104;-4.162;2022-07-21T12:33:42;102728.84;;;20.62;100.00
8569;BME280;4322;51.104;-4.162;2022-07-21T12:36:33;102727.81;;;20.65;100.00
8569;BME280;4322;51.104;-4.162;2022-07-21T12:39:13;102730.16;;;20.69;100.00
8569;BME280;4322;51.104;-4.162;2022-07-21T12:42:02;102739.19;;;20.81;100.00
8569;BME280;4322;51.104;-4.162;2022-07-21T12:44:32;102741.72;;;20.83;100.00
8569;BME280;4322;51.104;-4.162;2022-07-21T12:47:16;102732.31;;;20.63;100.00
8569;BME280;4322;51.104;-4.162;2022-07-21T12:50:00;102726.44;;;20.58;100.00
8569;BME280;4322;51.104;-4.162;2022-07-21T12:52:46;102727.59;;;20.54;100.00
8569;BME280;4322;51.104;-4.162;2022-07-21T12:55:14;102729.47;;;20.52;100.00
8569;BME280;4322;51.104;-4.162;2022-07-21T12:57:42;102739.13;;;20.53;100.00
8569;BME280;4322;51.104;-4.162;2022-07-21T13:00:11;102725.78;;;20.54;100.00
8569;BME280;4322;51.104;-4.162;2022-07-21T13:02:46;102726.94;;;20.64;100.00
8569;BME280;4322;51.104;-4.162;2022-07-21T13:05:17;102726.00;;;20.79;100.00
8569;BME280;4322;51.104;-4.162;2022-07-21T13:07:45;102723.53;;;20.62;100.00
8569;BME280;4322;51.104;-4.162;2022-07-21T13:10:14;102731.75;;;20.58;100.00